createdAt,value
2023-04-08T00:01:26.204Z,13.30
2023-04-08T00:03:53.709Z,13.30
2023-04-08T00:06:21.172Z,13.30
2023-04-08T00:08:48.654Z,13.30
2023-04-08T00:11:18.433Z,13.30
2023-04-08T00:13:46.052Z,13.30
2023-04-08T00:16:13.319Z,13.30
2023-04-08T00:18:42.854Z,13.30
2023-04-08T00:21:18.068Z,13.20
2023-04-08T00:23:45.359Z,13.20
2023-04-08T00:26:12.704Z,13.20
2023-04-08T00:28:43.172Z,13.10
2023-04-08T00:31:10.594Z,13.10
2023-04-08T00:33:37.844Z,13.10
2023-04-08T00:36:05.339Z,13.10
2023-04-08T00:38:32.646Z,13.10
2023-04-08T00:41:05.022Z,13.10
2023-04-08T00:43:37.204Z,13.10
2023-04-08T00:46:06.885Z,13.10
2023-04-08T00:48:36.949Z,13.10
2023-04-08T00:51:04.480Z,13.10
2023-04-08T00:53:32.548Z,13.10
2023-04-08T00:56:01.337Z,13.10
2023-04-08T00:58:31.854Z,13.10
2023-04-08T01:01:09.366Z,13.10
2023-04-08T01:04:02.954Z,13.10
2023-04-08T01:06:42.799Z,13.10
2023-04-08T01:09:11.317Z,13.10
2023-04-08T01:11:44.229Z,13.10
2023-04-08T01:14:15.820Z,13.10
2023-04-08T01:16:46.097Z,13.10
2023-04-08T01:19:26.942Z,13.10
2023-04-08T01:21:58.587Z,13.10
2023-04-08T01:24:33.953Z,13.10
2023-04-08T01:27:05.641Z,13.00
2023-04-08T01:29:34.043Z,13.10
2023-04-08T01:32:04.085Z,13.10
2023-04-08T01:34:32.618Z,13.10
2023-04-08T01:37:00.333Z,13.10
2023-04-08T01:39:31.341Z,13.10
2023-04-08T01:42:02.627Z,13.00
2023-04-08T01:44:33.512Z,13.00
2023-04-08T01:47:05.864Z,13.00
2023-04-08T01:49:34.030Z,13.00
2023-04-08T01:52:02.562Z,13.00
2023-04-08T01:54:30.076Z,13.00
2023-04-08T01:57:01.652Z,13.00
2023-04-08T01:59:36.541Z,13.00
2023-04-08T02:02:06.193Z,13.00
2023-04-08T02:04:36.401Z,13.00
2023-04-08T02:07:04.748Z,13.00
2023-04-08T02:09:32.075Z,13.00
2023-04-08T02:12:01.785Z,13.00
2023-04-08T02:14:31.868Z,13.00
2023-04-08T02:17:33.117Z,13.00
2023-04-08T02:20:11.804Z,13.00
2023-04-08T02:23:02.397Z,13.10
2023-04-08T02:25:30.971Z,13.10
2023-04-08T02:28:01.381Z,13.10
2023-04-08T02:30:31.551Z,13.10
2023-04-08T02:33:03.517Z,13.10
2023-04-08T02:35:33.393Z,13.20
2023-04-08T02:38:03.134Z,13.20
2023-04-08T02:40:33.094Z,13.20
2023-04-08T02:43:00.766Z,13.20
2023-04-08T02:45:32.121Z,13.20
2023-04-08T02:48:01.068Z,13.20
2023-04-08T02:50:30.559Z,13.30
2023-04-08T02:52:57.843Z,13.30
2023-04-08T02:55:25.374Z,13.30
2023-04-08T02:57:55.252Z,13.30
2023-04-08T03:00:22.636Z,13.20
2023-04-08T03:02:50.019Z,13.30
2023-04-08T03:05:17.565Z,13.20
2023-04-08T03:07:44.874Z,13.30
2023-04-08T03:10:12.451Z,13.20
2023-04-08T03:12:39.832Z,13.20
2023-04-08T03:15:07.737Z,13.20
2023-04-08T03:17:35.426Z,13.20
2023-04-08T03:20:05.325Z,13.20
2023-04-08T03:22:33.679Z,13.20
2023-04-08T03:25:01.132Z,13.20
2023-04-08T03:27:28.603Z,13.20
2023-04-08T03:29:57.798Z,13.20
2023-04-08T03:32:25.297Z,13.20
2023-04-08T03:34:52.792Z,13.20
2023-04-08T03:37:20.244Z,13.20
2023-04-08T03:39:47.540Z,13.20
2023-04-08T03:42:14.892Z,13.20
2023-04-08T03:44:42.167Z,13.20
2023-04-08T03:47:12.338Z,13.20
2023-04-08T03:49:39.605Z,13.10
2023-04-08T03:52:07.286Z,13.10
2023-04-08T03:54:39.272Z,13.20
2023-04-08T03:57:06.549Z,13.10
2023-04-08T03:59:34.174Z,13.10
2023-04-08T04:02:04.015Z,13.10
2023-04-08T04:04:34.406Z,13.10
2023-04-08T04:07:01.849Z,13.10
2023-04-08T04:09:31.499Z,13.10
2023-04-08T04:12:01.232Z,13.10
2023-04-08T04:14:31.034Z,13.10
2023-04-08T04:17:00.778Z,13.10
2023-04-08T04:19:31.653Z,13.10
2023-04-08T04:22:01.117Z,13.10
2023-04-08T04:24:28.362Z,13.10
2023-04-08T04:26:57.767Z,13.10
2023-04-08T04:29:25.160Z,13.10
2023-04-08T04:31:52.406Z,13.10
2023-04-08T04:34:24.197Z,13.10
2023-04-08T04:36:51.387Z,13.10
2023-04-08T04:39:18.541Z,13.10
2023-04-08T04:41:49.219Z,13.20
2023-04-08T04:44:16.848Z,13.20
2023-04-08T04:46:46.418Z,13.10
2023-04-08T04:49:13.766Z,13.10
2023-04-08T04:51:41.037Z,13.10
2023-04-08T04:54:13.134Z,13.10
2023-04-08T04:56:42.819Z,13.10
2023-04-08T04:59:12.979Z,13.10
2023-04-08T05:01:45.496Z,13.10
2023-04-08T05:04:15.146Z,13.10
2023-04-08T05:06:44.959Z,13.10
2023-04-08T05:09:12.246Z,13.10
2023-04-08T05:11:39.508Z,13.10
2023-04-08T05:14:11.354Z,13.10
2023-04-08T05:16:39.270Z,13.10
2023-04-08T05:19:11.560Z,13.10
2023-04-08T05:21:38.804Z,13.10
2023-04-08T05:24:06.161Z,13.10
2023-04-08T05:26:33.470Z,13.10
2023-04-08T05:29:00.827Z,13.10
2023-04-08T05:31:31.121Z,13.10
2023-04-08T05:33:58.441Z,13.10
2023-04-08T05:36:26.425Z,13.10
2023-04-08T05:38:53.698Z,13.10
2023-04-08T05:41:23.409Z,13.00
2023-04-08T05:43:50.681Z,13.00
2023-04-08T05:46:18.027Z,13.00
2023-04-08T05:48:50.825Z,13.00
2023-04-08T05:51:18.345Z,12.90
2023-04-08T05:53:47.085Z,12.90
2023-04-08T05:56:16.748Z,12.80
2023-04-08T05:58:46.610Z,12.80
2023-04-08T06:01:16.724Z,12.80
2023-04-08T06:03:46.539Z,12.70
2023-04-08T06:06:16.263Z,12.70
2023-04-08T06:08:43.528Z,12.60
2023-04-08T06:11:10.938Z,12.60
2023-04-08T06:13:40.810Z,12.60
2023-04-08T06:16:12.921Z,12.60
2023-04-08T06:18:42.558Z,12.60
2023-04-08T06:21:15.421Z,12.60
2023-04-08T06:23:45.401Z,12.60
2023-04-08T06:26:13.331Z,12.60
2023-04-08T06:28:43.100Z,12.60
2023-04-08T06:31:10.360Z,12.60
2023-04-08T06:33:42.341Z,12.60
2023-04-08T06:36:09.827Z,12.50
2023-04-08T06:38:37.162Z,12.60
2023-04-08T06:41:06.443Z,12.50
2023-04-08T06:43:34.558Z,12.60
2023-04-08T06:46:04.252Z,12.60
2023-04-08T06:48:34.341Z,12.60
2023-04-08T06:51:01.798Z,12.60
2023-04-08T06:53:32.838Z,12.60
2023-04-08T06:56:00.439Z,12.60
2023-04-08T06:58:27.726Z,12.60
2023-04-08T07:00:58.066Z,12.70
2023-04-08T07:03:25.484Z,12.60
2023-04-08T07:05:55.539Z,12.70
2023-04-08T07:08:22.804Z,12.70
2023-04-08T07:10:51.924Z,12.60
2023-04-08T07:13:24.066Z,12.60
2023-04-08T07:15:52.252Z,12.70
2023-04-08T07:18:22.469Z,12.70
2023-04-08T07:20:56.479Z,12.70
2023-04-08T07:23:26.225Z,12.70
2023-04-08T07:25:56.660Z,12.60
2023-04-08T07:28:23.899Z,12.70
2023-04-08T07:30:53.297Z,12.70
2023-04-08T07:33:26.475Z,12.70
2023-04-08T07:35:53.744Z,12.60
2023-04-08T07:38:23.471Z,12.70
2023-04-08T07:40:52.822Z,12.60
2023-04-08T07:43:20.506Z,12.60
2023-04-08T07:45:50.488Z,12.60
2023-04-08T07:48:20.584Z,12.60
2023-04-08T07:51:09.172Z,12.60
2023-04-08T07:53:38.828Z,12.60
2023-04-08T07:56:14.139Z,12.60
2023-04-08T07:58:42.028Z,12.50
2023-04-08T08:01:23.610Z,12.50
2023-04-08T08:03:54.615Z,12.50
2023-04-08T08:06:24.533Z,12.50
2023-04-08T08:08:51.806Z,12.40
2023-04-08T08:11:19.368Z,12.40
2023-04-08T08:13:46.650Z,12.40
2023-04-08T08:16:14.170Z,12.40
2023-04-08T08:18:41.667Z,12.40
2023-04-08T08:21:13.852Z,12.30
2023-04-08T08:23:41.122Z,12.30
2023-04-08T08:26:15.907Z,12.30
2023-04-08T08:28:43.226Z,12.30
2023-04-08T08:31:15.394Z,12.30
2023-04-08T08:33:42.733Z,12.30
2023-04-08T08:36:12.418Z,12.30
2023-04-08T08:38:39.755Z,12.30
2023-04-08T08:41:07.109Z,12.30
2023-04-08T08:43:34.680Z,12.30
2023-04-08T08:46:04.636Z,12.30
2023-04-08T08:48:32.925Z,12.30
2023-04-08T08:51:00.728Z,12.30
2023-04-08T08:53:35.759Z,12.40
2023-04-08T08:58:42.586Z,12.40
2023-04-08T09:01:38.339Z,12.40
2023-04-08T09:04:23.333Z,12.40
2023-04-08T09:07:08.915Z,12.40
2023-04-08T09:09:55.288Z,12.40
2023-04-08T09:12:31.373Z,12.40
2023-04-08T09:15:08.630Z,12.40
2023-04-08T09:17:42.981Z,12.40
2023-04-08T09:20:15.368Z,12.50
2023-04-08T09:23:00.362Z,12.40
2023-04-08T09:25:29.608Z,12.50
2023-04-08T09:27:59.482Z,12.40
2023-04-08T09:30:27.881Z,12.40
2023-04-08T09:32:57.334Z,12.40
2023-04-08T09:35:29.126Z,12.50
2023-04-08T09:37:56.570Z,12.40
2023-04-08T09:40:26.490Z,12.50
2023-04-08T09:42:56.250Z,12.50
2023-04-08T09:45:28.160Z,12.50
2023-04-08T09:48:14.431Z,12.50
2023-04-08T09:50:47.671Z,12.50
2023-04-08T09:53:26.335Z,12.50
2023-04-08T09:55:59.764Z,12.50
2023-04-08T09:58:42.790Z,12.50
2023-04-08T10:01:19.376Z,12.50
2023-04-08T10:03:54.821Z,12.50
2023-04-08T10:06:27.857Z,12.50
2023-04-08T10:08:59.069Z,12.50
2023-04-08T10:11:30.379Z,12.50
2023-04-08T10:13:57.739Z,12.50
2023-04-08T10:16:27.474Z,12.40
2023-04-08T10:18:57.442Z,12.40
2023-04-08T10:21:48.466Z,12.50
2023-04-08T10:24:24.217Z,12.50
2023-04-08T10:26:51.509Z,12.50
2023-04-08T10:29:18.826Z,12.50
2023-04-08T10:31:52.812Z,12.50
2023-04-08T10:34:26.230Z,12.50
2023-04-08T10:36:55.722Z,12.50
2023-04-08T10:39:27.201Z,12.60
2023-04-08T10:41:56.740Z,12.50
2023-04-08T10:44:28.113Z,12.50
2023-04-08T10:46:55.860Z,12.50
2023-04-08T10:49:25.690Z,12.60
2023-04-08T10:51:53.379Z,12.60
2023-04-08T10:54:20.639Z,12.60
2023-04-08T10:56:53.622Z,12.60
2023-04-08T10:59:33.573Z,12.60
2023-04-08T11:02:03.530Z,12.60
2023-04-08T11:04:33.258Z,12.70
2023-04-08T11:07:07.718Z,12.70
2023-04-08T11:09:35.374Z,12.60
2023-04-08T11:12:04.867Z,12.70
2023-04-08T11:14:33.222Z,12.60
2023-04-08T11:17:01.706Z,12.70
2023-04-08T11:19:29.636Z,12.60
2023-04-08T11:21:59.118Z,12.60
2023-04-08T11:24:28.841Z,12.60
2023-04-08T11:26:57.217Z,12.60
2023-04-08T11:29:28.133Z,12.70
2023-04-08T11:31:57.740Z,12.70
2023-04-08T11:34:25.816Z,12.70
2023-04-08T11:36:53.342Z,12.70
2023-04-08T11:39:26.489Z,12.70
2023-04-08T11:41:53.754Z,12.80
2023-04-08T11:44:29.661Z,12.80
2023-04-08T11:46:57.403Z,12.80
2023-04-08T11:49:24.892Z,12.80
2023-04-08T11:51:59.453Z,12.80
2023-04-08T11:54:33.584Z,12.80
2023-04-08T11:57:03.004Z,12.80
2023-04-08T11:59:30.351Z,12.90
2023-04-08T12:01:58.138Z,12.90
2023-04-08T12:04:28.237Z,12.90
2023-04-08T12:06:58.165Z,13.00
2023-04-08T12:09:30.694Z,13.00
2023-04-08T12:12:01.674Z,13.00
2023-04-08T12:14:29.079Z,13.00
2023-04-08T12:16:58.717Z,13.00
2023-04-08T12:19:27.042Z,13.00
2023-04-08T12:21:54.361Z,13.00
2023-04-08T12:24:21.988Z,13.00
2023-04-08T12:26:49.273Z,13.00
2023-04-08T12:29:16.802Z,13.00
2023-04-08T12:31:44.281Z,13.00
2023-04-08T12:34:16.830Z,13.00
2023-04-08T12:36:44.894Z,13.00
2023-04-08T12:39:14.640Z,13.00
2023-04-08T12:41:44.258Z,13.00
2023-04-08T12:44:11.559Z,13.00
2023-04-08T12:46:38.889Z,13.10
2023-04-08T12:49:06.911Z,13.10
2023-04-08T12:51:37.214Z,13.10
2023-04-08T12:54:04.991Z,13.10
2023-04-08T12:56:35.157Z,13.10
2023-04-08T12:59:02.601Z,13.10
2023-04-08T13:01:30.885Z,13.10
2023-04-08T13:04:00.759Z,13.10
2023-04-08T13:06:30.360Z,13.10
2023-04-08T13:08:57.967Z,13.10
2023-04-08T13:11:27.678Z,13.10
2023-04-08T13:13:55.076Z,13.10
2023-04-08T13:16:24.989Z,13.00
2023-04-08T13:18:52.629Z,13.10
2023-04-08T13:21:22.629Z,13.10
2023-04-08T13:23:49.937Z,13.10
2023-04-08T13:26:22.115Z,13.20
2023-04-08T13:28:57.266Z,13.10
2023-04-08T13:31:26.124Z,13.10
2023-04-08T13:33:56.079Z,13.10
2023-04-08T13:36:25.974Z,13.20
2023-04-08T13:38:53.716Z,13.20
2023-04-08T13:41:21.279Z,13.10
2023-04-08T13:43:48.750Z,13.20
2023-04-08T13:46:16.375Z,13.10
2023-04-08T13:48:46.301Z,13.20
2023-04-08T13:51:16.193Z,13.20
2023-04-08T13:53:43.488Z,13.10
2023-04-08T13:56:10.769Z,13.10
2023-04-08T13:58:38.038Z,13.10
2023-04-08T14:01:05.729Z,13.20
2023-04-08T14:03:35.524Z,13.10
2023-04-08T14:06:02.798Z,13.10
2023-04-08T14:08:30.258Z,13.10
2023-04-08T14:10:59.766Z,13.10
2023-04-08T14:13:30.026Z,13.00
2023-04-08T14:15:58.495Z,13.10
2023-04-08T14:18:26.493Z,13.00
2023-04-08T14:20:53.763Z,13.00
2023-04-08T14:23:23.607Z,13.00
2023-04-08T14:25:50.897Z,13.00
2023-04-08T14:28:18.172Z,12.90
2023-04-08T14:30:45.532Z,13.00
2023-04-08T14:33:18.524Z,12.90
2023-04-08T14:35:45.892Z,12.90
2023-04-08T14:38:16.116Z,12.90
2023-04-08T14:40:43.425Z,12.90
2023-04-08T14:43:10.678Z,12.90
2023-04-08T14:45:37.997Z,12.90
2023-04-08T14:48:07.829Z,12.90
2023-04-08T14:50:37.492Z,12.80
2023-04-08T14:53:04.758Z,12.80
2023-04-08T14:55:36.457Z,12.80
2023-04-08T14:58:05.723Z,12.80
2023-04-08T15:00:35.346Z,12.80
2023-04-08T15:03:02.953Z,12.80
2023-04-08T15:05:30.463Z,12.80
2023-04-08T15:07:57.794Z,12.80
2023-04-08T15:10:28.019Z,12.80
2023-04-08T15:12:55.715Z,12.70
2023-04-08T15:15:25.342Z,12.70
2023-04-08T15:17:52.799Z,12.70
2023-04-08T15:20:22.610Z,12.70
2023-04-08T15:22:54.541Z,12.70
2023-04-08T15:25:24.149Z,12.70
2023-04-08T15:27:51.748Z,12.70
2023-04-08T15:30:24.403Z,12.60
2023-04-08T15:32:52.652Z,12.60
2023-04-08T15:35:20.085Z,12.60
2023-04-08T15:37:52.355Z,12.60
2023-04-08T15:40:25.801Z,12.60
2023-04-08T15:42:53.139Z,12.50
2023-04-08T15:45:23.035Z,12.60
2023-04-08T15:47:50.622Z,12.50
2023-04-08T15:50:20.333Z,12.60
2023-04-08T15:52:49.779Z,12.50
2023-04-08T15:55:19.292Z,12.50
2023-04-08T15:57:46.778Z,12.60
2023-04-08T16:00:16.571Z,12.50
2023-04-08T16:02:48.902Z,12.50
2023-04-08T16:05:18.663Z,12.50
2023-04-08T16:07:46.710Z,12.50
2023-04-08T16:10:16.307Z,12.50
2023-04-08T16:12:46.335Z,12.50
2023-04-08T16:15:16.312Z,12.60
2023-04-08T16:17:46.198Z,12.60
2023-04-08T16:20:17.325Z,12.60
2023-04-08T16:22:45.913Z,12.60
2023-04-08T16:25:13.261Z,12.60
2023-04-08T16:27:40.561Z,12.60
2023-04-08T16:30:08.584Z,12.60
2023-04-08T16:32:35.889Z,12.60
2023-04-08T16:35:06.053Z,12.50
2023-04-08T16:37:36.037Z,12.50
2023-04-08T16:40:06.647Z,12.50
2023-04-08T16:42:33.963Z,12.50
2023-04-08T16:45:03.769Z,12.50
2023-04-08T16:47:33.931Z,12.50
2023-04-08T16:50:01.754Z,12.60
2023-04-08T16:52:29.094Z,12.50
2023-04-08T16:54:57.629Z,12.50
2023-04-08T16:57:28.791Z,12.50
2023-04-08T16:59:56.107Z,12.40
2023-04-08T17:02:23.598Z,12.40
2023-04-08T17:04:51.183Z,12.40
2023-04-08T17:07:18.509Z,12.40
2023-04-08T17:09:51.483Z,12.40
2023-04-08T17:12:21.207Z,12.40
2023-04-08T17:14:48.485Z,12.30
2023-04-08T17:17:18.104Z,12.30
2023-04-08T17:19:47.994Z,12.40
2023-04-08T17:22:17.912Z,12.30
2023-04-08T17:24:47.814Z,12.30
2023-04-08T17:27:15.658Z,12.30
2023-04-08T17:29:43.012Z,12.30
2023-04-08T17:32:10.822Z,12.30
2023-04-08T17:34:38.468Z,12.30
2023-04-08T17:37:09.293Z,12.30
2023-04-08T17:39:40.791Z,12.30
2023-04-08T17:42:10.599Z,12.30
2023-04-08T17:44:38.020Z,12.30
2023-04-08T17:47:05.270Z,12.30
2023-04-08T17:49:32.524Z,12.30
2023-04-08T17:52:02.336Z,12.20
2023-04-08T17:54:31.473Z,12.20
2023-04-08T17:56:58.829Z,12.20
2023-04-08T17:59:26.231Z,12.20
2023-04-08T18:01:53.775Z,12.20
2023-04-08T18:04:21.620Z,12.20
2023-04-08T18:06:48.976Z,12.10
2023-04-08T18:09:18.451Z,12.10
2023-04-08T18:11:47.913Z,12.10
2023-04-08T18:14:20.281Z,12.10
2023-04-08T18:16:49.925Z,12.10
2023-04-08T18:19:21.745Z,12.10
2023-04-08T18:21:48.865Z,12.00
2023-04-08T18:24:19.313Z,12.00
2023-04-08T18:27:01.530Z,12.00
2023-04-08T18:29:33.327Z,12.00
2023-04-08T18:32:00.721Z,11.90
2023-04-08T18:34:28.063Z,11.90
2023-04-08T18:36:58.282Z,11.90
2023-04-08T18:39:27.825Z,11.90
2023-04-08T18:41:55.790Z,11.80
2023-04-08T18:44:25.472Z,11.80
2023-04-08T18:46:56.404Z,11.80
2023-04-08T18:49:23.742Z,11.80
2023-04-08T18:52:01.382Z,11.80
2023-04-08T18:54:30.261Z,11.80
2023-04-08T18:56:57.863Z,11.80
2023-04-08T18:59:27.757Z,11.70
2023-04-08T19:01:55.792Z,11.80
2023-04-08T19:04:23.518Z,11.70
2023-04-08T19:06:50.953Z,11.70
2023-04-08T19:09:18.468Z,11.70
2023-04-08T19:11:48.482Z,11.70
2023-04-08T19:14:18.122Z,11.70
2023-04-08T19:16:47.867Z,11.70
2023-04-08T19:19:16.233Z,11.70
2023-04-08T19:21:43.860Z,11.70
2023-04-08T19:24:11.139Z,11.60
2023-04-08T19:26:41.141Z,11.60
2023-04-08T19:29:11.929Z,11.60
2023-04-08T19:31:39.446Z,11.60
2023-04-08T19:34:06.891Z,11.60
2023-04-08T19:36:36.528Z,11.60
2023-04-08T19:39:04.574Z,11.60
2023-04-08T19:41:32.045Z,11.60
2023-04-08T19:43:59.333Z,11.60
2023-04-08T19:46:28.735Z,11.60
2023-04-08T19:48:58.995Z,11.60
2023-04-08T19:51:27.440Z,11.60
2023-04-08T19:53:54.909Z,11.60
2023-04-08T19:56:22.229Z,11.60
2023-04-08T19:58:52.481Z,11.60
2023-04-08T20:01:20.058Z,11.60
2023-04-08T20:03:50.408Z,11.60
2023-04-08T20:06:18.990Z,11.60
2023-04-08T20:08:46.748Z,11.60
2023-04-08T20:11:14.087Z,11.60
2023-04-08T20:13:41.429Z,11.60
2023-04-08T20:16:08.783Z,11.60
2023-04-08T20:18:36.074Z,11.60
2023-04-08T20:21:03.497Z,11.60
2023-04-08T20:23:31.168Z,11.60
2023-04-08T20:25:59.460Z,11.60
2023-04-08T20:28:29.307Z,11.60
2023-04-08T20:31:01.822Z,11.60
2023-04-08T20:33:31.598Z,11.60
2023-04-08T20:35:59.030Z,11.60
2023-04-08T20:38:29.006Z,11.60
2023-04-08T20:40:56.462Z,11.60
2023-04-08T20:43:26.135Z,11.60
2023-04-08T20:45:55.790Z,11.70
2023-04-08T20:48:25.481Z,11.60
2023-04-08T20:50:52.769Z,11.60
2023-04-08T20:53:20.197Z,11.70
2023-04-08T20:55:47.494Z,11.60
2023-04-08T20:58:14.804Z,11.60
2023-04-08T21:00:42.074Z,11.70
2023-04-08T21:03:09.516Z,11.60
2023-04-08T21:05:39.677Z,11.60
2023-04-08T21:08:07.304Z,11.60
2023-04-08T21:10:34.762Z,11.60
2023-04-08T21:13:04.465Z,11.60
2023-04-08T21:15:31.734Z,11.60
2023-04-08T21:17:59.068Z,11.60
2023-04-08T21:20:28.492Z,11.60
2023-04-08T21:22:56.030Z,11.60
2023-04-08T21:25:23.461Z,11.60
2023-04-08T21:27:50.720Z,11.60
2023-04-08T21:30:18.112Z,11.60
2023-04-08T21:32:45.450Z,11.60
2023-04-08T21:35:17.605Z,11.60
2023-04-08T21:37:46.995Z,11.60
2023-04-08T21:40:17.228Z,11.60
2023-04-08T21:42:44.641Z,11.60
2023-04-08T21:45:15.470Z,11.60
2023-04-08T21:47:42.883Z,11.60
2023-04-08T21:50:10.800Z,11.60
2023-04-08T21:52:38.131Z,11.50
2023-04-08T21:55:06.563Z,11.60
2023-04-08T21:57:36.129Z,11.50
2023-04-08T22:00:08.170Z,11.60
2023-04-08T22:02:40.761Z,11.60
2023-04-08T22:05:09.170Z,11.50
2023-04-08T22:07:36.484Z,11.50
2023-04-08T22:10:04.095Z,11.60
2023-04-08T22:12:31.479Z,11.50
2023-04-08T22:14:58.802Z,11.50
2023-04-08T22:17:26.423Z,11.50
2023-04-08T22:19:56.785Z,11.60
2023-04-08T22:22:24.046Z,11.60
2023-04-08T22:24:51.429Z,11.60
2023-04-08T22:27:18.703Z,11.60
2023-04-08T22:29:48.968Z,11.60
2023-04-08T22:32:18.243Z,11.60
2023-04-08T22:34:50.747Z,11.60
2023-04-08T22:37:18.014Z,11.60
2023-04-08T22:39:45.338Z,11.60
2023-04-08T22:42:12.686Z,11.60
2023-04-08T22:44:39.968Z,11.60
2023-04-08T22:47:07.661Z,11.60
2023-04-08T22:49:37.452Z,11.70
2023-04-08T22:52:04.717Z,11.70
2023-04-08T22:54:34.653Z,11.70
2023-04-08T22:57:02.172Z,11.60
2023-04-08T22:59:34.200Z,11.60
2023-04-08T23:02:02.175Z,11.60
2023-04-08T23:04:32.161Z,11.70
2023-04-08T23:07:01.757Z,11.60
2023-04-08T23:09:29.089Z,11.70
2023-04-08T23:11:58.588Z,11.60
2023-04-08T23:14:25.869Z,11.60
2023-04-08T23:16:53.113Z,11.60
2023-04-08T23:19:20.896Z,11.70
2023-04-08T23:21:48.175Z,11.60
2023-04-08T23:24:15.543Z,11.60
2023-04-08T23:26:42.856Z,11.60
2023-04-08T23:29:12.714Z,11.60
2023-04-08T23:31:42.454Z,11.60
2023-04-08T23:34:09.972Z,11.60
2023-04-08T23:36:39.453Z,11.60
2023-04-08T23:39:09.128Z,11.50
2023-04-08T23:41:38.659Z,11.60
2023-04-08T23:44:10.645Z,11.50
2023-04-08T23:46:37.923Z,11.50
2023-04-08T23:49:05.286Z,11.50
2023-04-08T23:51:32.595Z,11.50
2023-04-08T23:54:01.956Z,11.50
2023-04-08T23:56:29.313Z,11.50
2023-04-08T23:58:56.766Z,11.50
